Lancaster, Virginia
Current Conditions -  °F | °C
As of 3:15 PM on Wednesday 26 Nov 2014 (Local Time) from KW75 Reporting Station
Overcast Overcast  
Wind Chill: 34°   Ceiling: 800
Heat Index: 40°   Visibility: 5mi
Dew Point: 38°   Wind: 10mph
Humidity: 92%   Direction: 320°NW
Pressure: 29.83"   Gusts: 18mph
Location:  37.77°N, 76.47°W
Report Text: KW75 262015Z AUTO 32009G16KT 5SM OVC008 05/04 A2983 RMK AO1 T00470035
Loading
Personal Weather Stations






























Interactive Weather Map New forecast layout! Learn more

10-Day Weather Forecast

Advertisements
Track Severe Weather on mobile